Time;durP1;ratioP1;P1;durP2;ratioP2;P2;SDS_P1;SDS_P2;PMS_P1;PMS_P2;Temp;Humidity;BMP_temperature;BMP_pressure;BME280_temperature;BME280_humidity;BME280_pressure;Samples;Min_cycle;Max_cycle;Signal;HPM_P1;HPM_P2
2024/01/05 00:01:03;;;;;;;;;;;;;;;10.41;60.64;99158.16;5091078;28;19969;-87
2024/01/05 00:03:29;;;;;;;;;;;;;;;10.38;60.21;99171.69;5092180;28;19918;-86
2024/01/05 00:05:54;;;;;;;;;;;;;;;10.31;60.45;99163.69;5092166;28;19920;-86
2024/01/05 00:08:19;;;;;;;;;;;;;;;10.29;60.45;99164.91;5092397;28;19920;-86
2024/01/05 00:10:44;;;;;;;;;;;;;;;10.28;61.09;99174.63;5090722;28;19912;-86
2024/01/05 00:13:10;;;;;;;;;;;;;;;10.26;60.60;99170.53;5091909;28;20438;-87
2024/01/05 00:15:35;;;;;;;;;;;;;;;10.23;61.07;99178.81;5092129;28;19912;-88
2024/01/05 00:18:00;;;;;;;;;;;;;;;10.19;60.99;99181.81;5091894;28;19974;-88
2024/01/05 00:20:25;;;;;;;;;;;;;;;10.16;61.47;99182.16;5090727;28;19920;-88
2024/01/05 00:22:51;;;;;;;;;;;;;;;10.13;60.99;99190.44;5091752;28;19924;-88
2024/01/05 00:25:20;;;;;;;;;;;;;;;10.09;60.92;99186.53;5091835;28;20053;-88
2024/01/05 00:27:46;;;;;;;;;;;;;;;10.06;60.78;99189.56;5091613;28;19920;-88
2024/01/05 00:30:11;;;;;;;;;;;;;;;10.04;61.19;99194.19;5091855;28;19920;-86
2024/01/05 00:32:37;;;;;;;;;;;;;;;9.99;61.12;99196.56;5091892;28;20442;-87
2024/01/05 00:35:02;;;;;;;;;;;;;;;9.96;61.61;99201.38;5091736;28;20385;-87
2024/01/05 00:37:27;;;;;;;;;;;;;;;9.90;61.23;99213.47;5090518;28;19919;-87
2024/01/05 00:39:53;;;;;;;;;;;;;;;9.87;61.55;99200.66;5090467;28;19912;-86
2024/01/05 00:42:18;;;;;;;;;;;;;;;9.84;61.56;99206.28;5091757;28;19912;-87
2024/01/05 00:44:43;;;;;;;;;;;;;;;9.78;62.18;99213.09;5090466;28;20042;-87
2024/01/05 00:47:08;;;;;;;;;;;;;;;9.74;61.66;99218.91;5091687;28;19965;-86
2024/01/05 00:49:34;;;;;;;;;;;;;;;9.70;62.18;99226.38;5091691;28;19947;-87
2024/01/05 00:51:59;;;;;;;;;;;;;;;9.66;62.39;99225.09;5090285;28;19969;-88
2024/01/05 00:54:25;;;;;;;;;;;;;;;9.64;62.10;99224.44;5091619;28;20380;-88
2024/01/05 00:56:50;;;;;;;;;;;;;;;9.60;62.08;99215.25;5090194;28;19950;-86
2024/01/05 00:59:18;;;;;;;;;;;;;;;9.56;62.43;99222.69;5091520;28;19911;-86
2024/01/05 01:01:43;;;;;;;;;;;;;;;9.53;62.55;99232.78;5090276;28;19912;-88
2024/01/05 01:04:08;;;;;;;;;;;;;;;9.49;62.20;99223.59;5091211;28;20350;-88
2024/01/05 01:06:34;;;;;;;;;;;;;;;9.45;62.61;99225.75;5091348;28;19913;-87
2024/01/05 01:08:59;;;;;;;;;;;;;;;9.40;61.91;99228.09;5091398;28;19995;-88
2024/01/05 01:11:24;;;;;;;;;;;;;;;9.37;62.29;99225.00;5091494;28;20454;-87
2024/01/05 01:13:49;;;;;;;;;;;;;;;9.33;62.42;99235.09;5091338;28;19912;-87
2024/01/05 01:16:15;;;;;;;;;;;;;;;9.28;62.82;99237.44;5091377;28;20343;-88
2024/01/05 01:18:41;;;;;;;;;;;;;;;9.24;63.01;99236.16;5089996;28;19912;-88
2024/01/05 01:21:06;;;;;;;;;;;;;;;9.18;63.03;99229.78;5089928;28;20309;-89
2024/01/05 01:23:32;;;;;;;;;;;;;;;9.13;63.51;99232.13;5089801;28;19920;-88
2024/01/05 01:25:57;;;;;;;;;;;;;;;9.10;63.55;99234.28;5091386;28;19961;-88
2024/01/05 01:28:22;;;;;;;;;;;;;;;9.08;63.40;99225.75;5090043;28;20379;-88
2024/01/05 01:30:48;;;;;;;;;;;;;;;9.04;63.46;99222.63;5091743;28;19912;-88
2024/01/05 01:33:13;;;;;;;;;;;;;;;9.00;63.58;99225.81;5093905;28;19912;-88
2024/01/05 01:35:38;;;;;;;;;;;;;;;8.94;63.85;99221.22;5095129;28;19917;-88
2024/01/05 01:38:03;;;;;;;;;;;;;;;8.90;64.11;99231.25;5093418;28;19912;-88
2024/01/05 01:40:29;;;;;;;;;;;;;;;8.86;64.39;99227.34;5094971;28;19912;-88
2024/01/05 01:42:55;;;;;;;;;;;;;;;8.82;64.08;99232.13;5094594;28;19916;-89
2024/01/05 01:45:20;;;;;;;;;;;;;;;8.80;64.00;99239.38;5095033;28;20069;-88
2024/01/05 01:47:45;;;;;;;;;;;;;;;8.82;64.02;99242.66;5094918;28;20408;-89
2024/01/05 01:50:11;;;;;;;;;;;;;;;8.82;64.01;99241.84;5093359;28;19912;-89
2024/01/05 01:52:42;;;;;;;;;;;;;;;8.81;64.48;99245.47;5093393;28;19916;-88
2024/01/05 01:55:08;;;;;;;;;;;;;;;8.78;64.19;99246.66;5093359;28;19998;-89
2024/01/05 01:57:34;;;;;;;;;;;;;;;8.76;64.27;99242.53;5094647;28;19918;-88
2024/01/05 01:59:59;;;;;;;;;;;;;;;8.75;64.14;99256.69;5093195;28;19916;-88
2024/01/05 02:02:25;;;;;;;;;;;;;;;8.78;64.22;99251.91;5094322;28;19918;-88
2024/01/05 02:04:50;;;;;;;;;;;;;;;8.77;64.35;99250.28;5093005;28;19916;-88
2024/01/05 02:07:16;;;;;;;;;;;;;;;8.80;64.14;99254.38;5093028;28;20400;-88
2024/01/05 02:09:41;;;;;;;;;;;;;;;8.81;64.11;99250.75;5094510;28;19998;-88
2024/01/05 02:12:07;;;;;;;;;;;;;;;8.89;64.15;99254.16;5094260;28;20006;-88
2024/01/05 02:14:32;;;;;;;;;;;;;;;8.98;63.63;99257.56;5094161;28;19912;-89
2024/01/05 02:16:57;;;;;;;;;;;;;;;9.05;63.13;99257.69;5094321;28;19978;-88
2024/01/05 02:19:24;;;;;;;;;;;;;;;9.08;63.31;99260.78;5092999;28;19919;-89
2024/01/05 02:21:50;;;;;;;;;;;;;;;9.10;62.21;99268.53;5093945;28;19912;-88
2024/01/05 02:24:16;;;;;;;;;;;;;;;9.16;62.77;99267.81;5092601;28;20385;-88
2024/01/05 02:26:41;;;;;;;;;;;;;;;9.19;61.75;99264.84;5092614;28;19919;-88
2024/01/05 02:29:06;;;;;;;;;;;;;;;9.23;62.15;99266.94;5092653;28;19919;-86
2024/01/05 02:31:31;;;;;;;;;;;;;;;9.26;61.88;99272.84;5092668;28;19911;-86
2024/01/05 02:33:57;;;;;;;;;;;;;;;9.27;61.56;99267.41;5092543;28;19965;-88
2024/01/05 02:36:22;;;;;;;;;;;;;;;9.26;60.91;99276.31;5092447;28;20010;-88
2024/01/05 02:38:47;;;;;;;;;;;;;;;9.27;61.54;99277.13;5093620;28;20002;-89
2024/01/05 02:41:13;;;;;;;;;;;;;;;9.27;60.48;99277.13;5092213;28;20022;-87
2024/01/05 02:43:38;;;;;;;;;;;;;;;9.28;60.33;99269.03;5092101;28;19934;-87
2024/01/05 02:46:03;;;;;;;;;;;;;;;9.31;61.33;99279.22;5093485;28;19916;-87
2024/01/05 02:48:28;;;;;;;;;;;;;;;9.32;61.91;99280.06;5093731;28;19908;-87
2024/01/05 02:50:54;;;;;;;;;;;;;;;9.31;60.63;99279.22;5092235;28;20377;-87
2024/01/05 02:53:19;;;;;;;;;;;;;;;9.32;61.21;99272.97;5092282;28;19912;-89
2024/01/05 02:55:44;;;;;;;;;;;;;;;9.32;61.23;99286.13;5093274;28;19918;-88
2024/01/05 02:58:10;;;;;;;;;;;;;;;9.32;61.30;99286.13;5093349;28;19913;-87
2024/01/05 03:00:35;;;;;;;;;;;;;;;9.30;60.96;99295.22;5091979;28;19919;-88
2024/01/05 03:03:00;;;;;;;;;;;;;;;9.26;61.61;99296.56;5091804;28;19916;-89
2024/01/05 03:05:26;;;;;;;;;;;;;;;9.16;61.06;99304.69;5091814;28;19916;-88
2024/01/05 03:07:51;;;;;;;;;;;;;;;9.17;60.91;99303.69;5091774;28;19912;-88
2024/01/05 03:10:16;;;;;;;;;;;;;;;9.18;61.94;99305.34;5091918;28;19912;-88
2024/01/05 03:12:42;;;;;;;;;;;;;;;9.20;61.47;99313.88;5093289;28;19912;-88
2024/01/05 03:15:07;;;;;;;;;;;;;;;9.18;61.57;99321.16;5092200;28;19919;-89
2024/01/05 03:17:32;;;;;;;;;;;;;;;9.11;61.44;99320.19;5091586;28;19935;-88
2024/01/05 03:19:58;;;;;;;;;;;;;;;9.06;61.09;99330.44;5091685;28;19991;-89
2024/01/05 03:22:23;;;;;;;;;;;;;;;9.01;61.74;99333.59;5092838;28;19920;-88
2024/01/05 03:24:48;;;;;;;;;;;;;;;8.96;61.67;99341.19;5091561;28;19970;-89
2024/01/05 03:27:14;;;;;;;;;;;;;;;8.90;61.78;99344.47;5092675;28;19919;-88
2024/01/05 03:29:40;;;;;;;;;;;;;;;8.84;62.38;99337.25;5092611;28;20415;-88
2024/01/05 03:32:06;;;;;;;;;;;;;;;8.75;62.09;99341.75;5091340;28;19912;-88
2024/01/05 03:34:31;;;;;;;;;;;;;;;8.70;62.45;99346.72;5091401;28;19919;-88
2024/01/05 03:36:56;;;;;;;;;;;;;;;8.66;62.44;99344.59;5092757;28;20337;-89
2024/01/05 03:39:22;;;;;;;;;;;;;;;8.62;62.29;99351.19;5091261;28;19920;-89
2024/01/05 03:41:47;;;;;;;;;;;;;;;8.59;62.45;99350.53;5091389;28;20292;-88
2024/01/05 03:44:20;;;;;;;;;;;;;;;8.54;62.66;99365.19;5091270;28;19916;-88
2024/01/05 03:46:45;;;;;;;;;;;;;;;8.52;62.84;99364.53;5092441;28;19916;-88
2024/01/05 03:49:10;;;;;;;;;;;;;;;8.50;62.68;99369.97;5091215;28;19966;-88
2024/01/05 03:51:35;;;;;;;;;;;;;;;8.47;63.15;99372.13;5091081;28;20391;-88
2024/01/05 03:54:01;;;;;;;;;;;;;;;8.42;63.18;99371.81;5090662;28;19965;-89
2024/01/05 03:56:26;;;;;;;;;;;;;;;8.38;63.30;99376.56;5090825;28;20002;-89
2024/01/05 03:58:51;;;;;;;;;;;;;;;8.35;63.63;99384.81;5092279;28;19912;-88
2024/01/05 04:01:16;;;;;;;;;;;;;;;8.33;63.62;99389.41;5092244;28;19913;-89
2024/01/05 04:03:42;;;;;;;;;;;;;;;8.32;63.51;99393.00;5090875;28;20370;-88
2024/01/05 04:06:07;;;;;;;;;;;;;;;8.23;63.82;99399.25;5091985;28;20019;-87
2024/01/05 04:08:32;;;;;;;;;;;;;;;8.17;63.74;99394.63;5092029;28;19921;-88
2024/01/05 04:10:57;;;;;;;;;;;;;;;8.15;63.87;99409.75;5092229;28;19984;-88
2024/01/05 04:13:23;;;;;;;;;;;;;;;8.11;64.33;99400.56;5092199;28;19919;-89
2024/01/05 04:15:48;;;;;;;;;;;;;;;8.06;63.97;99413.38;5090808;28;20036;-88
2024/01/05 04:18:13;;;;;;;;;;;;;;;8.00;64.42;99409.59;5090867;28;19912;-89
2024/01/05 04:20:38;;;;;;;;;;;;;;;7.98;64.44;99416.84;5092000;28;20343;-89
2024/01/05 04:23:04;;;;;;;;;;;;;;;7.95;64.39;99423.25;5090479;28;19927;-89
2024/01/05 04:25:30;;;;;;;;;;;;;;;7.89;64.40;99421.28;5091802;28;19969;-88
2024/01/05 04:27:55;;;;;;;;;;;;;;;7.84;64.37;99428.00;5090430;28;19912;-89
2024/01/05 04:30:21;;;;;;;;;;;;;;;7.82;64.37;99432.59;5090604;28;19965;-88
2024/01/05 04:32:46;;;;;;;;;;;;;;;7.71;64.62;99419.78;5090690;28;19942;-88
2024/01/05 04:35:11;;;;;;;;;;;;;;;7.76;64.47;99435.88;5092020;28;19912;-88
2024/01/05 04:37:36;;;;;;;;;;;;;;;7.71;64.80;99452.13;5090651;28;19999;-88
2024/01/05 04:40:02;;;;;;;;;;;;;;;7.66;64.89;99449.16;5091877;28;19973;-89
2024/01/05 04:42:28;;;;;;;;;;;;;;;7.59;64.69;99451.63;5090435;28;19912;-89
2024/01/05 04:44:53;;;;;;;;;;;;;;;7.56;64.53;99459.00;5090487;28;19912;-88
2024/01/05 04:47:19;;;;;;;;;;;;;;;7.54;64.49;99459.16;5090411;28;19998;-89
2024/01/05 04:49:44;;;;;;;;;;;;;;;7.51;64.46;99466.53;5091785;28;19919;-89
2024/01/05 04:52:10;;;;;;;;;;;;;;;7.48;64.96;99467.69;5090348;28;19912;-89
2024/01/05 04:54:35;;;;;;;;;;;;;;;7.44;64.19;99478.69;5091961;28;19918;-89
2024/01/05 04:57:01;;;;;;;;;;;;;;;7.40;63.89;99479.94;5090485;28;20278;-88
2024/01/05 04:59:27;;;;;;;;;;;;;;;7.38;64.08;99490.59;5090447;28;20309;-89
2024/01/05 05:01:52;;;;;;;;;;;;;;;7.33;63.55;99500.75;5091620;28;19918;-88
2024/01/05 05:04:17;;;;;;;;;;;;;;;7.28;63.58;99497.78;5091533;28;19916;-89
2024/01/05 05:06:43;;;;;;;;;;;;;;;7.26;63.90;99505.00;5094794;28;19966;-89
2024/01/05 05:09:09;;;;;;;;;;;;;;;7.19;63.78;99504.81;5095660;28;20358;-89
2024/01/05 05:11:34;;;;;;;;;;;;;;;7.16;63.85;99518.25;5094201;28;19940;-89
2024/01/05 05:13:59;;;;;;;;;;;;;;;7.13;63.55;99513.31;5095429;28;20285;-88
2024/01/05 05:16:25;;;;;;;;;;;;;;;7.12;64.06;99513.47;5095471;28;19912;-89
2024/01/05 05:18:50;;;;;;;;;;;;;;;7.09;63.71;99514.63;5094051;28;20459;-89
2024/01/05 05:21:16;;;;;;;;;;;;;;;7.09;64.29;99513.78;5093999;28;19908;-89
2024/01/05 05:23:41;;;;;;;;;;;;;;;7.04;63.45;99513.44;5093720;28;19973;-88
2024/01/05 05:26:06;;;;;;;;;;;;;;;6.99;63.81;99511.28;5095127;28;19912;-89
2024/01/05 05:28:31;;;;;;;;;;;;;;;6.95;63.25;99528.31;5094081;28;20010;-89
2024/01/05 05:30:57;;;;;;;;;;;;;;;6.93;64.20;99520.59;5094987;28;19923;-89
2024/01/05 05:33:22;;;;;;;;;;;;;;;6.91;63.92;99526.97;5094839;28;19934;-89
2024/01/05 05:35:48;;;;;;;;;;;;;;;6.89;63.63;99532.38;5095000;28;19920;-89
2024/01/05 05:38:13;;;;;;;;;;;;;;;6.87;63.82;99531.72;5093565;28;20369;-89
2024/01/05 05:40:39;;;;;;;;;;;;;;;6.85;64.18;99535.47;5093777;28;19951;-89
2024/01/05 05:43:04;;;;;;;;;;;;;;;6.83;64.26;99543.50;5094839;28;19939;-89
2024/01/05 05:45:29;;;;;;;;;;;;;;;6.86;63.68;99539.75;5093552;28;19934;-89
2024/01/05 05:47:54;;;;;;;;;;;;;;;6.86;63.74;99539.75;5093351;28;19919;-89
2024/01/05 05:50:20;;;;;;;;;;;;;;;6.85;64.07;99548.59;5094418;28;20377;-89
2024/01/05 05:52:45;;;;;;;;;;;;;;;6.81;63.90;99560.38;5094380;28;19962;-89
2024/01/05 05:55:12;;;;;;;;;;;;;;;6.81;64.57;99560.38;5092999;28;19912;-89
2024/01/05 05:57:38;;;;;;;;;;;;;;;6.77;63.49;99557.22;5094694;28;19995;-89
2024/01/05 06:00:05;;;;;;;;;;;;;;;6.74;64.02;99556.72;5094512;28;19935;-88
2024/01/05 06:02:30;;;;;;;;;;;;;;;6.71;63.58;99557.84;5093872;28;19912;-88
2024/01/05 06:04:55;;;;;;;;;;;;;;;6.71;63.67;99562.28;5093166;28;19912;-89
2024/01/05 06:07:21;;;;;;;;;;;;;;;6.68;63.70;99568.63;5093157;28;19961;-89
2024/01/05 06:09:47;;;;;;;;;;;;;;;6.66;63.71;99565.31;5094603;28;20381;-89
2024/01/05 06:12:12;;;;;;;;;;;;;;;6.65;64.44;99571.53;5094289;28;19919;-89
2024/01/05 06:14:38;;;;;;;;;;;;;;;6.66;64.25;99573.19;5094279;28;20309;-88
2024/01/05 06:17:03;;;;;;;;;;;;;;;6.66;64.74;99584.50;5093929;28;19927;-87
2024/01/05 06:19:28;;;;;;;;;;;;;;;6.66;63.88;99579.25;5092944;28;19909;-88
2024/01/05 06:21:54;;;;;;;;;;;;;;;6.69;63.77;99586.03;5094389;28;19912;-88
2024/01/05 06:24:19;;;;;;;;;;;;;;;6.68;63.49;99593.06;5092700;28;20454;-89
2024/01/05 06:26:44;;;;;;;;;;;;;;;6.71;63.96;99594.56;5093921;28;19955;-88
2024/01/05 06:29:09;;;;;;;;;;;;;;;6.64;62.86;99601.38;5092695;28;19913;-89
2024/01/05 06:31:35;;;;;;;;;;;;;;;6.60;62.85;99607.91;5093932;28;20007;-88
2024/01/05 06:34:00;;;;;;;;;;;;;;;6.62;63.87;99611.19;5092539;28;19966;-88
2024/01/05 06:36:25;;;;;;;;;;;;;;;6.60;63.28;99610.53;5092746;28;20375;-89
2024/01/05 06:38:50;;;;;;;;;;;;;;;6.63;63.55;99623.34;5092472;28;19912;-89
2024/01/05 06:41:16;;;;;;;;;;;;;;;6.63;64.11;99620.72;5093694;28;19965;-89
2024/01/05 06:43:41;;;;;;;;;;;;;;;6.64;63.70;99625.81;5092624;28;20369;-89
2024/01/05 06:46:06;;;;;;;;;;;;;;;6.68;63.23;99623.72;5092687;28;19938;-89
2024/01/05 06:48:32;;;;;;;;;;;;;;;6.71;63.57;99631.31;5092543;28;19912;-89
2024/01/05 06:50:57;;;;;;;;;;;;;;;6.72;62.74;99624.25;5087526;28;19956;-89
2024/01/05 06:53:22;;;;;;;;;;;;;;;6.74;63.98;99628.38;5071247;28;19958;-89
2024/01/05 06:55:48;;;;;;;;;;;;;;;6.80;63.79;99627.78;5073917;28;19924;-89
2024/01/05 06:58:13;;;;;;;;;;;;;;;6.85;63.84;99624.69;5080544;28;20406;-89
2024/01/05 07:00:38;;;;;;;;;;;;;;;6.88;63.21;99629.63;5092052;28;20411;-89
2024/01/05 07:03:03;;;;;;;;;;;;;;;6.92;63.38;99638.84;5091833;28;19916;-88
2024/01/05 07:05:29;;;;;;;;;;;;;;;6.97;63.28;99633.97;5092025;28;19912;-88
2024/01/05 07:07:54;;;;;;;;;;;;;;;6.99;63.03;99642.53;5093297;28;19950;-88
2024/01/05 07:10:19;;;;;;;;;;;;;;;7.04;63.51;99644.69;5089953;28;19992;-88
2024/01/05 07:12:44;;;;;;;;;;;;;;;7.09;62.55;99650.31;5078930;28;19920;-89
2024/01/05 07:15:10;;;;;;;;;;;;;;;7.14;63.04;99648.03;5092678;28;19912;-88
2024/01/05 07:17:35;;;;;;;;;;;;;;;7.21;62.70;99654.31;5092695;28;19912;-88
2024/01/05 07:20:00;;;;;;;;;;;;;;;7.26;62.30;99647.63;5091460;28;19934;-88
2024/01/05 07:22:26;;;;;;;;;;;;;;;7.34;62.58;99657.38;5091259;28;20315;-88
2024/01/05 07:24:51;;;;;;;;;;;;;;;7.39;62.89;99655.09;5092577;28;19916;-88
2024/01/05 07:27:16;;;;;;;;;;;;;;;7.44;62.93;99649.41;5090844;28;20436;-87
2024/01/05 07:29:42;;;;;;;;;;;;;;;7.52;62.60;99657.34;5100242;28;20454;-88
2024/01/05 07:32:07;;;;;;;;;;;;;;;7.61;62.65;99657.22;5106903;28;19916;-89
2024/01/05 07:34:32;;;;;;;;;;;;;;;7.69;61.98;99666.13;5075150;28;19917;-88
2024/01/05 07:36:58;;;;;;;;;;;;;;;7.71;61.40;99664.19;5072883;28;19927;-88
2024/01/05 07:39:24;;;;;;;;;;;;;;;7.71;61.40;99666.81;5093270;28;19924;-88
2024/01/05 07:41:49;;;;;;;;;;;;;;;7.72;61.75;99658.75;5070346;28;19913;-88
2024/01/05 07:44:14;;;;;;;;;;;;;;;7.75;61.73;99660.25;5090863;28;19927;-89
2024/01/05 07:46:41;;;;;;;;;;;;;;;7.78;61.93;99654.69;5091168;28;20369;-88
2024/01/05 07:49:06;;;;;;;;;;;;;;;7.81;62.02;99664.88;5089653;28;19920;-88
2024/01/05 07:51:31;;;;;;;;;;;;;;;7.90;62.21;99679.72;5083173;28;20401;-89
2024/01/05 07:53:57;;;;;;;;;;;;;;;8.01;62.54;99668.09;5087557;28;19960;-88
2024/01/05 07:56:22;;;;;;;;;;;;;;;8.09;62.00;99663.69;5090883;28;19915;-87
2024/01/05 07:58:47;;;;;;;;;;;;;;;8.18;62.09;99659.31;5079431;28;20436;-88
2024/01/05 08:01:16;;;;;;;;;;;;;;;8.29;62.30;99667.72;5090893;28;19994;-88
2024/01/05 08:03:42;;;;;;;;;;;;;;;8.38;61.99;99663.34;5082993;28;20417;-88
2024/01/05 08:06:07;;;;;;;;;;;;;;;8.47;61.92;99656.28;5079638;28;19999;-88
2024/01/05 08:08:32;;;;;;;;;;;;;;;8.57;62.09;99659.59;5089282;28;20385;-87
2024/01/05 08:10:58;;;;;;;;;;;;;;;8.68;61.57;99655.81;5082633;28;19922;-87
2024/01/05 08:13:26;;;;;;;;;;;;;;;8.74;61.61;99655.16;5092811;28;20400;-87
2024/01/05 08:15:51;;;;;;;;;;;;;;;8.79;61.63;99661.59;5094307;28;19916;-87
2024/01/05 08:18:16;;;;;;;;;;;;;;;8.48;61.70;99607.94;5071462;28;19974;-87
2024/01/05 08:20:42;;;;;;;;;;;;;;;8.98;61.74;99672.81;5088848;28;20344;-86
2024/01/05 08:23:07;;;;;;;;;;;;;;;9.07;61.51;99674.44;5097080;28;19977;-86
2024/01/05 08:25:32;;;;;;;;;;;;;;;9.18;61.06;99669.66;5100153;28;19924;-86
2024/01/05 08:27:57;;;;;;;;;;;;;;;9.33;61.49;99674.25;5088636;28;20332;-87
2024/01/05 08:30:23;;;;;;;;;;;;;;;9.49;61.58;99668.97;5072574;28;19916;-87
2024/01/05 08:32:51;;;;;;;;;;;;;;;9.67;60.48;99677.53;5076359;28;20462;-87
2024/01/05 08:35:17;;;;;;;;;;;;;;;9.92;60.22;99672.16;5094443;28;20010;-87
2024/01/05 08:37:42;;;;;;;;;;;;;;;10.11;59.54;99667.31;5111964;28;20361;-86
2024/01/05 08:40:07;;;;;;;;;;;;;;;10.36;58.95;99668.03;5088907;28;20432;-86
2024/01/05 08:42:33;;;;;;;;;;;;;;;10.55;58.80;99671.25;5074123;28;19913;-86
2024/01/05 08:44:58;;;;;;;;;;;;;;;10.69;57.53;99668.69;5076616;28;19917;-86
2024/01/05 08:47:23;;;;;;;;;;;;;;;10.88;57.06;99666.56;5089616;28;19916;-86
2024/01/05 08:49:49;;;;;;;;;;;;;;;11.04;56.52;99669.06;5081173;28;19916;-86
2024/01/05 08:52:15;;;;;;;;;;;;;;;11.16;55.89;99662.41;5092724;28;19958;-85
2024/01/05 08:54:40;;;;;;;;;;;;;;;11.26;55.64;99665.59;5086560;28;19951;-85
2024/01/05 08:57:08;;;;;;;;;;;;;;;11.33;54.65;99660.41;5075422;28;20408;-86
2024/01/05 08:59:36;;;;;;;;;;;;;;;11.43;54.59;99667.09;5094045;28;19962;-86
2024/01/05 09:02:01;;;;;;;;;;;;;;;11.58;55.16;99663.63;5095657;28;19923;-87
2024/01/05 09:04:27;;;;;;;;;;;;;;;11.70;54.54;99660.34;5093978;28;19920;-86
2024/01/05 09:06:52;;;;;;;;;;;;;;;11.81;53.50;99661.75;5097011;28;19912;-87
2024/01/05 09:09:17;;;;;;;;;;;;;;;11.91;54.71;99657.03;5114285;28;20449;-85
2024/01/05 09:11:43;;;;;;;;;;;;;;;11.99;54.63;99642.88;5115597;28;19912;-85
2024/01/05 09:14:08;;;;;;;;;;;;;;;12.02;54.49;99651.28;5114167;28;19994;-85
2024/01/05 09:16:33;;;;;;;;;;;;;;;12.06;51.10;99639.31;5115164;28;19912;-85
2024/01/05 09:18:59;;;;;;;;;;;;;;;12.15;54.29;99641.84;5102377;28;20351;-85
2024/01/05 09:21:24;;;;;;;;;;;;;;;12.17;53.20;99634.56;5095113;28;20372;-85
2024/01/05 09:23:49;;;;;;;;;;;;;;;12.27;51.97;99633.25;5094975;28;19967;-86
2024/01/05 09:26:14;;;;;;;;;;;;;;;12.33;52.50;99626.38;5093987;28;19912;-85
2024/01/05 09:28:40;;;;;;;;;;;;;;;12.41;49.26;99629.72;5107121;28;19911;-86
2024/01/05 09:31:05;;;;;;;;;;;;;;;12.50;51.51;99624.31;5113913;28;19911;-85
2024/01/05 09:33:31;;;;;;;;;;;;;;;12.54;50.10;99626.41;5114261;28;20337;-85
2024/01/05 09:35:56;;;;;;;;;;;;;;;12.60;50.73;99620.34;5100205;28;19973;-85
2024/01/05 09:38:21;;;;;;;;;;;;;;;12.65;48.32;99617.16;5092955;28;19958;-84
2024/01/05 09:40:47;;;;;;;;;;;;;;;12.77;48.95;99626.25;5081930;28;20365;-85
2024/01/05 09:43:13;;;;;;;;;;;;;;;12.88;50.81;99619.59;5104135;28;20007;-85
2024/01/05 09:45:39;;;;;;;;;;;;;;;12.91;47.39;99624.53;5109578;28;19916;-84
2024/01/05 09:48:05;;;;;;;;;;;;;;;12.97;49.93;99613.16;5093831;28;19915;-85
2024/01/05 09:50:31;;;;;;;;;;;;;;;13.02;48.67;99619.53;5112980;28;19912;-85
2024/01/05 09:52:57;;;;;;;;;;;;;;;13.12;46.81;99611.22;5106631;28;20363;-85
2024/01/05 09:55:23;;;;;;;;;;;;;;;12.95;43.27;99575.44;5052067;28;19925;-84
2024/01/05 09:57:50;;;;;;;;;;;;;;;13.26;44.03;99607.69;5038906;28;19940;-84
2024/01/05 10:00:15;;;;;;;;;;;;;;;13.38;49.07;99608.00;5049536;28;19925;-86
2024/01/05 10:02:54;;;;;;;;;;;;;;;13.42;44.01;99597.84;5033877;28;20075;-86
2024/01/05 10:05:19;;;;;;;;;;;;;;;13.49;45.62;99609.28;5047391;28;19917;-86
2024/01/05 10:07:45;;;;;;;;;;;;;;;13.54;44.05;99593.63;5048140;28;19914;-86
2024/01/05 10:10:13;;;;;;;;;;;;;;;13.62;46.24;99590.81;5038463;28;20390;-86
2024/01/05 10:12:42;;;;;;;;;;;;;;;13.70;45.21;99587.97;5033938;28;20478;-85
2024/01/05 10:15:07;;;;;;;;;;;;;;;13.80;43.64;99584.97;5032550;28;19917;-85
2024/01/05 10:17:33;;;;;;;;;;;;;;;13.83;42.07;99588.03;5032170;28;19917;-83
2024/01/05 10:20:15;;;;;;;;;;;;;;;13.87;40.10;99583.97;5049339;28;20007;-84
2024/01/05 10:22:41;;;;;;;;;;;;;;;13.95;43.52;99572.38;5051806;28;20445;-85
2024/01/05 10:25:22;;;;;;;;;;;;;;;13.97;43.20;99573.81;5041718;28;19959;-85
2024/01/05 10:27:49;;;;;;;;;;;;;;;14.02;42.74;99573.19;5050456;28;20362;-85
2024/01/05 10:30:25;;;;;;;;;;;;;;;14.05;44.53;99569.34;5050642;28;20047;-85
2024/01/05 10:33:06;;;;;;;;;;;;;;;14.08;42.75;99553.81;5053262;28;19917;-84
2024/01/05 10:35:31;;;;;;;;;;;;;;;14.13;47.08;99556.72;5035016;28;19917;-84
2024/01/05 10:38:08;;;;;;;;;;;;;;;14.18;46.22;99561.44;5036318;28;19928;-84
2024/01/05 10:40:33;;;;;;;;;;;;;;;14.20;43.45;99559.41;5033461;28;20313;-85
2024/01/05 10:43:12;;;;;;;;;;;;;;;14.21;40.63;99553.88;5032385;28;19917;-84
2024/01/05 10:45:38;;;;;;;;;;;;;;;14.23;44.25;99554.50;5035048;28;19921;-84
2024/01/05 10:48:10;;;;;;;;;;;;;;;14.28;46.68;99551.25;5046574;28;20011;-85
2024/01/05 10:50:37;;;;;;;;;;;;;;;14.32;44.79;99553.28;5035612;28;19917;-84
2024/01/05 10:53:03;;;;;;;;;;;;;;;14.35;42.26;99545.94;5040167;28;19916;-85
2024/01/05 10:55:29;;;;;;;;;;;;;;;14.35;43.53;99537.97;5035955;28;20333;-85
2024/01/05 10:57:55;;;;;;;;;;;;;;;14.32;42.13;99526.72;5038775;28;19999;-85
2024/01/05 11:00:24;;;;;;;;;;;;;;;14.31;43.15;99526.94;5031124;28;19924;-84
2024/01/05 11:02:50;;;;;;;;;;;;;;;14.34;43.31;99525.72;5030428;28;19913;-86
2024/01/05 11:05:16;;;;;;;;;;;;;;;14.38;45.51;99540.22;5032077;28;19927;-85
2024/01/05 11:07:42;;;;;;;;;;;;;;;14.40;47.22;99536.34;5032111;28;19968;-85
2024/01/05 11:10:24;;;;;;;;;;;;;;;14.46;45.74;99540.06;5051955;28;19935;-84
2024/01/05 11:12:52;;;;;;;;;;;;;;;14.50;45.77;99533.31;5051360;28;20332;-85
2024/01/05 11:15:24;;;;;;;;;;;;;;;14.52;43.16;99528.63;5042843;28;19952;-84
2024/01/05 11:17:58;;;;;;;;;;;;;;;14.58;43.60;99535.78;5048134;28;19920;-85
2024/01/05 11:21:00;;;;;;;;;;;;;;;14.59;44.39;99524.94;5047296;28;19913;-86
2024/01/05 11:23:26;;;;;;;;;;;;;;;14.60;44.47;99531.88;4983488;28;20482;-85
2024/01/05 11:25:54;;;;;;;;;;;;;;;14.61;44.45;99530.88;5019299;28;19920;-85
2024/01/05 11:28:41;;;;;;;;;;;;;;;14.61;44.36;99525.56;5030847;28;19921;-84
2024/01/05 11:31:09;;;;;;;;;;;;;;;14.56;40.48;99524.53;5032200;28;20071;-85
2024/01/05 11:33:48;;;;;;;;;;;;;;;14.59;43.22;99526.78;5034921;28;19921;-84
2024/01/05 11:36:33;;;;;;;;;;;;;;;14.60;43.25;99537.19;5030978;28;19916;-84
2024/01/05 11:38:58;;;;;;;;;;;;;;;14.69;43.06;99531.69;5032234;28;20438;-85
2024/01/05 11:41:24;;;;;;;;;;;;;;;14.76;42.52;99540.47;5031718;28;20007;-85
2024/01/05 11:43:50;;;;;;;;;;;;;;;14.75;41.20;99538.84;5032002;28;20470;-85
2024/01/05 11:46:16;;;;;;;;;;;;;;;14.74;42.35;99539.84;5032226;28;19948;-85
2024/01/05 11:48:41;;;;;;;;;;;;;;;14.71;40.26;99530.44;5032071;28;19952;-86
2024/01/05 11:51:07;;;;;;;;;;;;;;;14.70;40.98;99533.31;5031994;28;19917;-82
2024/01/05 11:53:32;;;;;;;;;;;;;;;14.70;40.47;99528.00;5030355;28;20322;-84
2024/01/05 11:55:59;;;;;;;;;;;;;;;14.70;42.64;99535.97;5031511;28;19913;-86
2024/01/05 11:58:28;;;;;;;;;;;;;;;14.68;42.99;99535.34;5030729;28;19928;-83
2024/01/05 12:00:55;;;;;;;;;;;;;;;14.63;41.63;99538.63;5035379;28;20398;-86
2024/01/05 12:03:22;;;;;;;;;;;;;;;14.58;40.43;99525.13;5030601;28;20299;-83
2024/01/05 12:05:52;;;;;;;;;;;;;;;14.57;41.97;99537.59;5032914;28;20378;-87
2024/01/05 12:08:18;;;;;;;;;;;;;;;14.56;42.04;99530.66;5064545;28;19916;-85
2024/01/05 12:10:43;;;;;;;;;;;;;;;14.56;40.45;99528.00;5050453;28;19924;-85
2024/01/05 12:13:08;;;;;;;;;;;;;;;14.58;41.79;99528.63;5037192;28;20370;-84
2024/01/05 12:15:35;;;;;;;;;;;;;;;14.59;42.47;99524.94;5029421;28;19970;-85
2024/01/05 12:18:11;;;;;;;;;;;;;;;14.59;41.45;99522.28;5039348;28;20014;-85
2024/01/05 12:20:36;;;;;;;;;;;;;;;14.60;43.28;99529.22;5031721;28;19920;-87
2024/01/05 12:23:02;;;;;;;;;;;;;;;14.62;43.57;99529.03;5031575;28;20318;-85
2024/01/05 12:25:30;;;;;;;;;;;;;;;14.61;41.90;99533.53;5040356;28;21854;-85
2024/01/05 12:27:57;;;;;;;;;;;;;;;14.61;41.64;99538.03;5029869;28;19924;-84
2024/01/05 12:30:22;;;;;;;;;;;;;;;14.62;41.92;99535.16;5031545;28;20001;-83
2024/01/05 12:32:49;;;;;;;;;;;;;;;14.62;41.38;99542.31;5030176;28;19945;-85
2024/01/05 12:35:15;;;;;;;;;;;;;;;14.59;39.49;99534.75;5031577;28;20012;-83
2024/01/05 12:37:51;;;;;;;;;;;;;;;14.60;41.25;99534.53;5045617;28;20392;-84
2024/01/05 12:40:21;;;;;;;;;;;;;;;14.59;41.40;99527.59;5050052;28;20329;-84
2024/01/05 12:42:46;;;;;;;;;;;;;;;14.57;40.83;99532.28;5032650;28;19917;-84
2024/01/05 12:45:11;;;;;;;;;;;;;;;14.56;42.10;99529.84;5031380;28;20032;-84
2024/01/05 12:47:37;;;;;;;;;;;;;;;14.55;42.92;99538.84;5030000;28;19967;-84